Messwerte Tabora

Temperatur

Temperatur
°C
1638010800 14.00 14.00
1638014400 15.00 15.00
1638018000 16.00 16.00
1638021600 17.00 17.00
1638025200 18.00 18.00 30
1638028800 19.00 19.00
1638032400 20.00 20.00 27
1638036000 21.00 21.00 25
1638039600 22.00 22.00 24
1638043200 23.00 23.00
1638046800 0.00 0.00 24
1638050400 1.00 1.00 24
1638054000 2.00 2.00
1638057600 3.00 3.00 21
1638061200 4.00 4.00 20
1638064800 5.00 5.00 20
1638068400 6.00 6.00 20
1638072000 7.00 7.00 19
1638075600 8.00 8.00 22
1638079200 9.00 9.00 23
1638082800 10.00 10.00 26
1638086400 11.00 11.00 27
1638090000 12.00 12.00 28
1638093600 13.00 13.00 30

Aktuellste Messwerte

Wettercharakter
Wetter: freundlich
Temperatur
30 °C
Feuchtigkeit
35 %
Wind
20 km/hWindrichtung: Nordost
Luftdruck
1017 hPa
Messzeit: 28. November 2021, 13.00Datenquelle: METAR

Weitere Messstationen in der Nähe

Messstation Temperatur Entfernung
Mwanza 24 °C 290 km
Kigali 21 °C 458 km

Wind

Windrichtung Böen Mittelwind
° km/h km/h
1638010800 14.00 13.00 - 14.00
1638014400 15.00 14.00 - 15.00
1638018000 16.00 15.00 - 16.00
1638021600 17.00 16.00 - 17.00
1638025200 18.00 17.00 - 18.00 300° 10
1638028800 19.00 18.00 - 19.00
1638032400 20.00 19.00 - 20.00 0
1638036000 21.00 20.00 - 21.00 0
1638039600 22.00 21.00 - 22.00 0
1638043200 23.00 22.00 - 23.00
1638046800 0.00 23.00 - 0.00 0
1638050400 1.00 0.00 - 1.00 0
1638054000 2.00 1.00 - 2.00
1638057600 3.00 2.00 - 3.00 0
1638061200 4.00 3.00 - 4.00 0
1638064800 5.00 4.00 - 5.00 0
1638068400 6.00 5.00 - 6.00 0
1638072000 7.00 6.00 - 7.00 90° 10
1638075600 8.00 7.00 - 8.00 100° 30
1638079200 9.00 8.00 - 9.00 90° 20
1638082800 10.00 9.00 - 10.00 90° 20
1638086400 11.00 10.00 - 11.00 90° 20
1638090000 12.00 11.00 - 12.00 100° 20
1638093600 13.00 12.00 - 13.00 60° 20

Ihre Wetterstation

Fehlt Ihre Wetterstation auf unserem Portal?

Schreiben Sie an network@meteonews.ch